sensor_id;sensor_type;location;lat;lon;timestamp;temperature;humidity
9837;DHT22;4957;51.412;6.724;2023-11-21T00:00:05;8.30;99.90
9837;DHT22;4957;51.412;6.724;2023-11-21T00:02:35;8.30;99.90
9837;DHT22;4957;51.412;6.724;2023-11-21T00:05:04;8.30;99.90
9837;DHT22;4957;51.412;6.724;2023-11-21T00:07:30;8.30;99.90
9837;DHT22;4957;51.412;6.724;2023-11-21T00:09:55;8.30;99.90
9837;DHT22;4957;51.412;6.724;2023-11-21T00:12:21;8.30;99.90
9837;DHT22;4957;51.412;6.724;2023-11-21T00:14:47;8.40;99.90
9837;DHT22;4957;51.412;6.724;2023-11-21T00:17:13;8.30;99.90
9837;DHT22;4957;51.412;6.724;2023-11-21T00:19:38;8.30;99.90
9837;DHT22;4957;51.412;6.724;2023-11-21T00:22:04;8.40;99.90
9837;DHT22;4957;51.412;6.724;2023-11-21T00:24:31;8.40;99.90
9837;DHT22;4957;51.412;6.724;2023-11-21T00:26:57;8.40;99.90
9837;DHT22;4957;51.412;6.724;2023-11-21T00:29:23;8.40;99.90
9837;DHT22;4957;51.412;6.724;2023-11-21T00:31:48;8.40;99.90
9837;DHT22;4957;51.412;6.724;2023-11-21T00:34:14;8.40;99.90
9837;DHT22;4957;51.412;6.724;2023-11-21T00:36:40;8.40;99.90
9837;DHT22;4957;51.412;6.724;2023-11-21T00:39:06;8.40;99.90
9837;DHT22;4957;51.412;6.724;2023-11-21T00:41:32;8.40;99.90
9837;DHT22;4957;51.412;6.724;2023-11-21T00:43:58;8.40;99.90
9837;DHT22;4957;51.412;6.724;2023-11-21T00:46:25;8.40;99.90
9837;DHT22;4957;51.412;6.724;2023-11-21T00:48:52;8.40;99.90
9837;DHT22;4957;51.412;6.724;2023-11-21T00:51:19;8.40;99.90
9837;DHT22;4957;51.412;6.724;2023-11-21T00:53:45;8.40;99.90
9837;DHT22;4957;51.412;6.724;2023-11-21T00:56:12;8.40;99.90
9837;DHT22;4957;51.412;6.724;2023-11-21T00:58:39;8.40;99.90
9837;DHT22;4957;51.412;6.724;2023-11-21T01:01:08;8.40;99.90
9837;DHT22;4957;51.412;6.724;2023-11-21T01:03:33;8.40;99.90
9837;DHT22;4957;51.412;6.724;2023-11-21T01:05:59;8.40;99.90
9837;DHT22;4957;51.412;6.724;2023-11-21T01:08:25;8.40;99.90
9837;DHT22;4957;51.412;6.724;2023-11-21T01:10:50;8.40;99.90
9837;DHT22;4957;51.412;6.724;2023-11-21T01:13:16;8.40;99.90
9837;DHT22;4957;51.412;6.724;2023-11-21T01:15:42;8.40;99.90
9837;DHT22;4957;51.412;6.724;2023-11-21T01:18:08;8.40;99.90
9837;DHT22;4957;51.412;6.724;2023-11-21T01:20:34;8.40;99.90
9837;DHT22;4957;51.412;6.724;2023-11-21T01:23:00;8.40;99.90
9837;DHT22;4957;51.412;6.724;2023-11-21T01:25:26;8.40;99.90
9837;DHT22;4957;51.412;6.724;2023-11-21T01:27:52;8.30;99.90
9837;DHT22;4957;51.412;6.724;2023-11-21T01:30:17;8.40;99.90
9837;DHT22;4957;51.412;6.724;2023-11-21T01:32:43;8.40;99.90
9837;DHT22;4957;51.412;6.724;2023-11-21T01:35:09;8.40;99.90
9837;DHT22;4957;51.412;6.724;2023-11-21T01:37:36;8.40;99.90
9837;DHT22;4957;51.412;6.724;2023-11-21T01:40:03;8.40;99.90
9837;DHT22;4957;51.412;6.724;2023-11-21T01:42:31;8.40;99.90
9837;DHT22;4957;51.412;6.724;2023-11-21T01:44:57;8.40;99.90
9837;DHT22;4957;51.412;6.724;2023-11-21T01:47:22;8.40;99.90
9837;DHT22;4957;51.412;6.724;2023-11-21T01:49:48;8.40;99.90
9837;DHT22;4957;51.412;6.724;2023-11-21T01:52:14;8.40;99.90
9837;DHT22;4957;51.412;6.724;2023-11-21T01:54:41;8.40;99.90
9837;DHT22;4957;51.412;6.724;2023-11-21T01:57:07;8.40;99.90
9837;DHT22;4957;51.412;6.724;2023-11-21T01:59:37;8.40;99.90
9837;DHT22;4957;51.412;6.724;2023-11-21T02:02:06;8.40;99.90
9837;DHT22;4957;51.412;6.724;2023-11-21T02:04:36;8.40;99.90
9837;DHT22;4957;51.412;6.724;2023-11-21T02:07:02;8.40;99.90
9837;DHT22;4957;51.412;6.724;2023-11-21T02:09:31;8.40;99.90
9837;DHT22;4957;51.412;6.724;2023-11-21T02:11:58;8.40;99.90
9837;DHT22;4957;51.412;6.724;2023-11-21T02:14:27;8.50;99.90
9837;DHT22;4957;51.412;6.724;2023-11-21T02:16:54;8.40;99.90
9837;DHT22;4957;51.412;6.724;2023-11-21T02:19:21;8.40;99.90
9837;DHT22;4957;51.412;6.724;2023-11-21T02:21:57;8.40;99.90
9837;DHT22;4957;51.412;6.724;2023-11-21T02:24:29;8.50;99.90
9837;DHT22;4957;51.412;6.724;2023-11-21T02:26:54;8.50;99.90
9837;DHT22;4957;51.412;6.724;2023-11-21T02:29:21;8.50;99.90
9837;DHT22;4957;51.412;6.724;2023-11-21T02:31:54;8.50;99.90
9837;DHT22;4957;51.412;6.724;2023-11-21T02:34:21;8.50;99.90
9837;DHT22;4957;51.412;6.724;2023-11-21T02:36:47;8.50;99.90
9837;DHT22;4957;51.412;6.724;2023-11-21T02:39:15;8.50;99.90
9837;DHT22;4957;51.412;6.724;2023-11-21T02:41:42;8.50;99.90
9837;DHT22;4957;51.412;6.724;2023-11-21T02:44:08;8.50;99.90
9837;DHT22;4957;51.412;6.724;2023-11-21T02:46:34;8.50;99.90
9837;DHT22;4957;51.412;6.724;2023-11-21T02:49:04;8.50;99.90
9837;DHT22;4957;51.412;6.724;2023-11-21T02:51:31;8.50;99.90
9837;DHT22;4957;51.412;6.724;2023-11-21T02:53:58;8.50;99.90
9837;DHT22;4957;51.412;6.724;2023-11-21T02:56:25;8.50;99.90
9837;DHT22;4957;51.412;6.724;2023-11-21T02:58:57;8.50;99.90
9837;DHT22;4957;51.412;6.724;2023-11-21T03:01:23;8.50;99.90
9837;DHT22;4957;51.412;6.724;2023-11-21T03:03:52;8.60;99.90
9837;DHT22;4957;51.412;6.724;2023-11-21T03:06:21;8.60;99.90
9837;DHT22;4957;51.412;6.724;2023-11-21T03:08:47;8.60;99.90
9837;DHT22;4957;51.412;6.724;2023-11-21T03:11:13;8.60;99.90
9837;DHT22;4957;51.412;6.724;2023-11-21T03:13:40;8.60;99.90
9837;DHT22;4957;51.412;6.724;2023-11-21T03:16:09;8.60;99.90
9837;DHT22;4957;51.412;6.724;2023-11-21T03:18:39;8.60;99.90
9837;DHT22;4957;51.412;6.724;2023-11-21T03:21:05;8.60;99.90
9837;DHT22;4957;51.412;6.724;2023-11-21T03:23:32;8.60;99.90
9837;DHT22;4957;51.412;6.724;2023-11-21T03:25:57;8.60;99.90
9837;DHT22;4957;51.412;6.724;2023-11-21T03:28:25;8.60;99.90
9837;DHT22;4957;51.412;6.724;2023-11-21T03:30:52;8.60;99.90
9837;DHT22;4957;51.412;6.724;2023-11-21T03:33:17;8.60;99.90
9837;DHT22;4957;51.412;6.724;2023-11-21T03:35:43;8.60;99.90
9837;DHT22;4957;51.412;6.724;2023-11-21T03:38:10;8.60;99.90
9837;DHT22;4957;51.412;6.724;2023-11-21T03:40:36;8.60;99.90
9837;DHT22;4957;51.412;6.724;2023-11-21T03:43:02;8.60;99.90
9837;DHT22;4957;51.412;6.724;2023-11-21T03:45:27;8.60;99.90
9837;DHT22;4957;51.412;6.724;2023-11-21T03:47:53;8.70;99.90
9837;DHT22;4957;51.412;6.724;2023-11-21T03:50:19;8.70;99.90
9837;DHT22;4957;51.412;6.724;2023-11-21T03:52:44;8.70;99.90
9837;DHT22;4957;51.412;6.724;2023-11-21T03:55:10;8.70;99.90
9837;DHT22;4957;51.412;6.724;2023-11-21T03:57:36;8.70;99.90
9837;DHT22;4957;51.412;6.724;2023-11-21T04:00:03;8.70;99.90
9837;DHT22;4957;51.412;6.724;2023-11-21T04:02:29;8.70;99.90
9837;DHT22;4957;51.412;6.724;2023-11-21T04:04:57;8.70;99.90
9837;DHT22;4957;51.412;6.724;2023-11-21T04:07:22;8.70;99.90
9837;DHT22;4957;51.412;6.724;2023-11-21T04:09:48;8.70;99.90
9837;DHT22;4957;51.412;6.724;2023-11-21T04:12:14;8.70;99.90
9837;DHT22;4957;51.412;6.724;2023-11-21T04:14:39;8.70;99.90
9837;DHT22;4957;51.412;6.724;2023-11-21T04:17:06;8.70;99.90
9837;DHT22;4957;51.412;6.724;2023-11-21T04:19:32;8.70;99.90
9837;DHT22;4957;51.412;6.724;2023-11-21T04:21:58;8.70;99.90
9837;DHT22;4957;51.412;6.724;2023-11-21T04:24:23;8.70;99.90
9837;DHT22;4957;51.412;6.724;2023-11-21T04:26:49;8.70;99.90
9837;DHT22;4957;51.412;6.724;2023-11-21T04:29:15;8.70;99.90
9837;DHT22;4957;51.412;6.724;2023-11-21T04:31:40;8.70;99.90
9837;DHT22;4957;51.412;6.724;2023-11-21T04:34:07;8.70;99.90
9837;DHT22;4957;51.412;6.724;2023-11-21T04:36:33;8.70;99.90
9837;DHT22;4957;51.412;6.724;2023-11-21T04:39:00;8.70;99.90
9837;DHT22;4957;51.412;6.724;2023-11-21T04:41:26;8.70;99.90
9837;DHT22;4957;51.412;6.724;2023-11-21T04:43:51;8.60;99.90
9837;DHT22;4957;51.412;6.724;2023-11-21T04:46:17;8.60;99.90
9837;DHT22;4957;51.412;6.724;2023-11-21T04:48:43;8.70;99.90
9837;DHT22;4957;51.412;6.724;2023-11-21T04:51:09;8.60;99.90
9837;DHT22;4957;51.412;6.724;2023-11-21T04:53:37;8.60;99.90
9837;DHT22;4957;51.412;6.724;2023-11-21T04:56:03;8.60;99.90
9837;DHT22;4957;51.412;6.724;2023-11-21T04:58:28;8.60;99.90
9837;DHT22;4957;51.412;6.724;2023-11-21T05:00:54;8.60;99.90
9837;DHT22;4957;51.412;6.724;2023-11-21T05:03:20;8.60;99.90
9837;DHT22;4957;51.412;6.724;2023-11-21T05:05:46;8.60;99.90
9837;DHT22;4957;51.412;6.724;2023-11-21T05:08:11;8.60;99.90
9837;DHT22;4957;51.412;6.724;2023-11-21T05:10:37;8.60;99.90
9837;DHT22;4957;51.412;6.724;2023-11-21T05:13:04;8.60;99.90
9837;DHT22;4957;51.412;6.724;2023-11-21T05:15:35;8.60;99.90
9837;DHT22;4957;51.412;6.724;2023-11-21T05:18:00;8.60;99.90
9837;DHT22;4957;51.412;6.724;2023-11-21T05:20:26;8.60;99.90
9837;DHT22;4957;51.412;6.724;2023-11-21T05:22:52;8.60;99.90
9837;DHT22;4957;51.412;6.724;2023-11-21T05:25:18;8.60;99.90
9837;DHT22;4957;51.412;6.724;2023-11-21T05:27:45;8.60;99.90
9837;DHT22;4957;51.412;6.724;2023-11-21T05:30:11;8.60;99.90
9837;DHT22;4957;51.412;6.724;2023-11-21T05:32:37;8.60;99.90
9837;DHT22;4957;51.412;6.724;2023-11-21T05:35:04;8.60;99.90
9837;DHT22;4957;51.412;6.724;2023-11-21T05:37:35;8.60;99.90
9837;DHT22;4957;51.412;6.724;2023-11-21T05:40:01;8.50;99.90
9837;DHT22;4957;51.412;6.724;2023-11-21T05:42:32;8.50;99.90
9837;DHT22;4957;51.412;6.724;2023-11-21T05:44:58;8.50;99.90
9837;DHT22;4957;51.412;6.724;2023-11-21T05:47:45;8.50;99.90
9837;DHT22;4957;51.412;6.724;2023-11-21T05:50:13;8.50;99.90
9837;DHT22;4957;51.412;6.724;2023-11-21T05:52:43;8.60;99.90
9837;DHT22;4957;51.412;6.724;2023-11-21T05:55:10;8.50;99.90
9837;DHT22;4957;51.412;6.724;2023-11-21T05:57:36;8.50;99.90
9837;DHT22;4957;51.412;6.724;2023-11-21T06:00:09;8.50;99.90
9837;DHT22;4957;51.412;6.724;2023-11-21T06:02:37;8.50;99.90
9837;DHT22;4957;51.412;6.724;2023-11-21T06:05:04;8.60;99.90
9837;DHT22;4957;51.412;6.724;2023-11-21T06:07:30;8.60;99.90
9837;DHT22;4957;51.412;6.724;2023-11-21T06:09:55;8.60;99.90
9837;DHT22;4957;51.412;6.724;2023-11-21T06:12:21;8.60;99.90
9837;DHT22;4957;51.412;6.724;2023-11-21T06:14:47;8.60;99.90
9837;DHT22;4957;51.412;6.724;2023-11-21T06:17:13;8.60;99.90
9837;DHT22;4957;51.412;6.724;2023-11-21T06:19:39;8.60;99.90
9837;DHT22;4957;51.412;6.724;2023-11-21T06:22:05;8.60;99.90
9837;DHT22;4957;51.412;6.724;2023-11-21T06:24:31;8.60;99.90
9837;DHT22;4957;51.412;6.724;2023-11-21T06:26:57;8.60;99.90
9837;DHT22;4957;51.412;6.724;2023-11-21T06:29:23;8.60;99.90
9837;DHT22;4957;51.412;6.724;2023-11-21T06:31:49;8.60;99.90
9837;DHT22;4957;51.412;6.724;2023-11-21T06:34:15;8.70;99.90
9837;DHT22;4957;51.412;6.724;2023-11-21T06:36:40;8.70;99.90
9837;DHT22;4957;51.412;6.724;2023-11-21T06:39:06;8.70;99.90
9837;DHT22;4957;51.412;6.724;2023-11-21T06:41:34;8.70;99.90
9837;DHT22;4957;51.412;6.724;2023-11-21T06:44:00;8.70;99.90
9837;DHT22;4957;51.412;6.724;2023-11-21T06:46:25;8.70;99.90
9837;DHT22;4957;51.412;6.724;2023-11-21T06:48:51;8.70;99.90
9837;DHT22;4957;51.412;6.724;2023-11-21T06:51:17;8.70;99.90
9837;DHT22;4957;51.412;6.724;2023-11-21T06:53:43;8.70;99.90
9837;DHT22;4957;51.412;6.724;2023-11-21T06:56:18;8.70;99.90
9837;DHT22;4957;51.412;6.724;2023-11-21T06:58:46;8.80;99.90
9837;DHT22;4957;51.412;6.724;2023-11-21T07:01:12;8.70;99.90
9837;DHT22;4957;51.412;6.724;2023-11-21T07:03:39;8.70;99.90
9837;DHT22;4957;51.412;6.724;2023-11-21T07:06:05;8.80;99.90
9837;DHT22;4957;51.412;6.724;2023-11-21T07:08:31;8.80;99.90
9837;DHT22;4957;51.412;6.724;2023-11-21T07:10:56;8.80;99.90
9837;DHT22;4957;51.412;6.724;2023-11-21T07:13:22;8.80;99.90
9837;DHT22;4957;51.412;6.724;2023-11-21T07:15:49;8.80;99.90
9837;DHT22;4957;51.412;6.724;2023-11-21T07:18:14;8.80;99.90
9837;DHT22;4957;51.412;6.724;2023-11-21T07:20:40;8.80;99.90
9837;DHT22;4957;51.412;6.724;2023-11-21T07:23:06;8.80;99.90
9837;DHT22;4957;51.412;6.724;2023-11-21T07:25:32;8.90;99.90
9837;DHT22;4957;51.412;6.724;2023-11-21T07:27:59;8.90;99.90
9837;DHT22;4957;51.412;6.724;2023-11-21T07:30:26;8.90;99.90
9837;DHT22;4957;51.412;6.724;2023-11-21T07:32:51;8.90;99.90
9837;DHT22;4957;51.412;6.724;2023-11-21T07:35:17;8.90;99.90
9837;DHT22;4957;51.412;6.724;2023-11-21T07:37:43;8.90;99.90
9837;DHT22;4957;51.412;6.724;2023-11-21T07:40:09;8.90;99.90
9837;DHT22;4957;51.412;6.724;2023-11-21T07:42:37;8.90;99.90
9837;DHT22;4957;51.412;6.724;2023-11-21T07:45:04;9.00;99.90
9837;DHT22;4957;51.412;6.724;2023-11-21T07:47:30;9.00;99.90
9837;DHT22;4957;51.412;6.724;2023-11-21T07:49:55;9.00;99.90
9837;DHT22;4957;51.412;6.724;2023-11-21T07:52:22;9.00;99.90
9837;DHT22;4957;51.412;6.724;2023-11-21T07:54:48;9.00;99.90
9837;DHT22;4957;51.412;6.724;2023-11-21T07:57:13;9.00;99.90
9837;DHT22;4957;51.412;6.724;2023-11-21T07:59:42;9.10;99.90
9837;DHT22;4957;51.412;6.724;2023-11-21T08:02:08;9.10;99.90
9837;DHT22;4957;51.412;6.724;2023-11-21T08:04:34;9.10;99.90
9837;DHT22;4957;51.412;6.724;2023-11-21T08:07:01;9.10;99.90
9837;DHT22;4957;51.412;6.724;2023-11-21T08:09:27;9.20;99.90
9837;DHT22;4957;51.412;6.724;2023-11-21T08:11:53;9.20;99.90
9837;DHT22;4957;51.412;6.724;2023-11-21T08:14:19;9.20;99.90
9837;DHT22;4957;51.412;6.724;2023-11-21T08:16:45;9.30;99.90
9837;DHT22;4957;51.412;6.724;2023-11-21T08:19:11;9.30;99.90
9837;DHT22;4957;51.412;6.724;2023-11-21T08:21:37;9.30;99.90
9837;DHT22;4957;51.412;6.724;2023-11-21T08:24:05;9.30;99.90
9837;DHT22;4957;51.412;6.724;2023-11-21T08:26:31;9.30;99.90
9837;DHT22;4957;51.412;6.724;2023-11-21T08:28:57;9.30;99.90
9837;DHT22;4957;51.412;6.724;2023-11-21T08:31:26;9.30;99.90
9837;DHT22;4957;51.412;6.724;2023-11-21T08:33:52;9.40;99.90
9837;DHT22;4957;51.412;6.724;2023-11-21T08:36:23;9.40;99.90
9837;DHT22;4957;51.412;6.724;2023-11-21T08:38:51;9.40;99.90
9837;DHT22;4957;51.412;6.724;2023-11-21T08:41:20;9.50;99.90
9837;DHT22;4957;51.412;6.724;2023-11-21T08:43:49;9.50;99.90
9837;DHT22;4957;51.412;6.724;2023-11-21T08:46:15;9.50;99.90
9837;DHT22;4957;51.412;6.724;2023-11-21T08:48:42;9.60;99.90
9837;DHT22;4957;51.412;6.724;2023-11-21T08:51:10;9.60;99.90
9837;DHT22;4957;51.412;6.724;2023-11-21T08:53:37;9.60;99.90
9837;DHT22;4957;51.412;6.724;2023-11-21T08:56:03;9.60;99.90
9837;DHT22;4957;51.412;6.724;2023-11-21T08:58:30;9.70;99.90
9837;DHT22;4957;51.412;6.724;2023-11-21T09:00:57;9.70;99.90
9837;DHT22;4957;51.412;6.724;2023-11-21T09:03:23;9.70;99.90
9837;DHT22;4957;51.412;6.724;2023-11-21T09:05:49;9.70;99.90
9837;DHT22;4957;51.412;6.724;2023-11-21T09:08:14;9.70;99.90
9837;DHT22;4957;51.412;6.724;2023-11-21T09:10:40;9.80;99.90
9837;DHT22;4957;51.412;6.724;2023-11-21T09:13:08;9.80;99.90
9837;DHT22;4957;51.412;6.724;2023-11-21T09:15:34;9.80;99.90
9837;DHT22;4957;51.412;6.724;2023-11-21T09:18:00;9.80;99.90
9837;DHT22;4957;51.412;6.724;2023-11-21T09:20:27;9.90;99.90
9837;DHT22;4957;51.412;6.724;2023-11-21T09:22:53;9.90;99.90
9837;DHT22;4957;51.412;6.724;2023-11-21T09:25:20;9.90;99.90
9837;DHT22;4957;51.412;6.724;2023-11-21T09:27:46;9.90;99.90
9837;DHT22;4957;51.412;6.724;2023-11-21T09:30:13;10.00;99.90
9837;DHT22;4957;51.412;6.724;2023-11-21T09:32:40;10.00;99.90
9837;DHT22;4957;51.412;6.724;2023-11-21T09:35:06;10.00;99.90
9837;DHT22;4957;51.412;6.724;2023-11-21T09:37:34;10.10;99.90
9837;DHT22;4957;51.412;6.724;2023-11-21T09:39:59;10.10;99.90
9837;DHT22;4957;51.412;6.724;2023-11-21T09:42:57;10.10;99.90
9837;DHT22;4957;51.412;6.724;2023-11-21T09:45:34;10.20;99.90
9837;DHT22;4957;51.412;6.724;2023-11-21T09:48:01;10.20;99.90
9837;DHT22;4957;51.412;6.724;2023-11-21T09:50:27;10.20;99.90
9837;DHT22;4957;51.412;6.724;2023-11-21T09:55:32;10.30;99.90
9837;DHT22;4957;51.412;6.724;2023-11-21T09:58:02;10.30;99.90
9837;DHT22;4957;51.412;6.724;2023-11-21T10:00:30;10.30;99.90
9837;DHT22;4957;51.412;6.724;2023-11-21T10:02:58;10.30;99.90
9837;DHT22;4957;51.412;6.724;2023-11-21T10:05:25;10.30;99.90
9837;DHT22;4957;51.412;6.724;2023-11-21T10:07:51;10.40;99.90
9837;DHT22;4957;51.412;6.724;2023-11-21T10:10:20;10.40;99.90
9837;DHT22;4957;51.412;6.724;2023-11-21T10:12:50;10.40;99.90
9837;DHT22;4957;51.412;6.724;2023-11-21T10:15:21;10.40;99.90
9837;DHT22;4957;51.412;6.724;2023-11-21T10:17:52;10.40;99.90
9837;DHT22;4957;51.412;6.724;2023-11-21T10:20:19;10.50;99.90
9837;DHT22;4957;51.412;6.724;2023-11-21T10:22:45;10.50;99.90
9837;DHT22;4957;51.412;6.724;2023-11-21T10:25:12;10.50;99.90
9837;DHT22;4957;51.412;6.724;2023-11-21T10:27:40;10.50;99.90
9837;DHT22;4957;51.412;6.724;2023-11-21T10:30:10;10.50;99.90
9837;DHT22;4957;51.412;6.724;2023-11-21T10:32:41;10.60;99.90
9837;DHT22;4957;51.412;6.724;2023-11-21T10:35:10;10.50;99.90
9837;DHT22;4957;51.412;6.724;2023-11-21T10:37:39;10.60;99.90
9837;DHT22;4957;51.412;6.724;2023-11-21T10:40:07;10.60;99.90
9837;DHT22;4957;51.412;6.724;2023-11-21T10:42:33;10.60;99.90
9837;DHT22;4957;51.412;6.724;2023-11-21T10:44:59;10.60;99.90
9837;DHT22;4957;51.412;6.724;2023-11-21T10:47:26;10.70;99.90
9837;DHT22;4957;51.412;6.724;2023-11-21T10:49:52;10.70;99.90
9837;DHT22;4957;51.412;6.724;2023-11-21T10:52:21;10.70;99.90
9837;DHT22;4957;51.412;6.724;2023-11-21T10:54:46;10.70;99.90
9837;DHT22;4957;51.412;6.724;2023-11-21T10:57:17;10.80;99.90
9837;DHT22;4957;51.412;6.724;2023-11-21T10:59:47;10.80;99.90
9837;DHT22;4957;51.412;6.724;2023-11-21T11:02:24;10.80;99.90
9837;DHT22;4957;51.412;6.724;2023-11-21T11:04:54;10.90;99.90
9837;DHT22;4957;51.412;6.724;2023-11-21T11:07:26;10.90;99.90
9837;DHT22;4957;51.412;6.724;2023-11-21T11:09:55;11.00;99.90
9837;DHT22;4957;51.412;6.724;2023-11-21T11:12:23;11.00;99.90
9837;DHT22;4957;51.412;6.724;2023-11-21T11:14:49;11.10;99.90
9837;DHT22;4957;51.412;6.724;2023-11-21T11:17:15;11.10;99.90
9837;DHT22;4957;51.412;6.724;2023-11-21T11:19:41;11.10;99.90
9837;DHT22;4957;51.412;6.724;2023-11-21T11:22:31;11.10;99.90
9837;DHT22;4957;51.412;6.724;2023-11-21T11:25:17;11.20;99.90
9837;DHT22;4957;51.412;6.724;2023-11-21T11:28:00;11.20;99.90
9837;DHT22;4957;51.412;6.724;2023-11-21T11:41:58;11.40;99.90
9837;DHT22;4957;51.412;6.724;2023-11-21T11:47:21;11.40;99.90
9837;DHT22;4957;51.412;6.724;2023-11-21T11:50:08;11.40;99.90
9837;DHT22;4957;51.412;6.724;2023-11-21T11:52:49;11.50;99.90
9837;DHT22;4957;51.412;6.724;2023-11-21T11:55:18;11.50;99.90
9837;DHT22;4957;51.412;6.724;2023-11-21T11:57:45;11.50;99.90
9837;DHT22;4957;51.412;6.724;2023-11-21T12:02:56;11.50;99.90
9837;DHT22;4957;51.412;6.724;2023-11-21T12:05:27;11.50;99.90
9837;DHT22;4957;51.412;6.724;2023-11-21T12:07:55;11.50;99.90
9837;DHT22;4957;51.412;6.724;2023-11-21T12:10:27;11.60;99.90
9837;DHT22;4957;51.412;6.724;2023-11-21T12:12:58;11.60;99.90
9837;DHT22;4957;51.412;6.724;2023-11-21T12:15:24;11.60;99.90
9837;DHT22;4957;51.412;6.724;2023-11-21T12:17:51;11.60;99.90
9837;DHT22;4957;51.412;6.724;2023-11-21T12:20:22;11.60;99.90
9837;DHT22;4957;51.412;6.724;2023-11-21T12:22:50;11.70;99.90
9837;DHT22;4957;51.412;6.724;2023-11-21T12:25:19;11.70;99.90
9837;DHT22;4957;51.412;6.724;2023-11-21T12:27:46;11.70;99.90
9837;DHT22;4957;51.412;6.724;2023-11-21T12:30:13;11.70;99.90
9837;DHT22;4957;51.412;6.724;2023-11-21T12:32:43;11.80;99.90
9837;DHT22;4957;51.412;6.724;2023-11-21T12:35:10;11.80;99.90
9837;DHT22;4957;51.412;6.724;2023-11-21T12:37:39;11.80;99.90
9837;DHT22;4957;51.412;6.724;2023-11-21T12:40:06;11.80;99.90
9837;DHT22;4957;51.412;6.724;2023-11-21T12:42:33;11.80;99.90
9837;DHT22;4957;51.412;6.724;2023-11-21T12:45:19;11.80;99.90
9837;DHT22;4957;51.412;6.724;2023-11-21T12:47:50;11.80;99.90
9837;DHT22;4957;51.412;6.724;2023-11-21T12:50:20;11.90;99.90
9837;DHT22;4957;51.412;6.724;2023-11-21T12:52:50;11.90;99.90
9837;DHT22;4957;51.412;6.724;2023-11-21T12:55:17;11.90;99.90
9837;DHT22;4957;51.412;6.724;2023-11-21T12:57:51;11.90;99.90
9837;DHT22;4957;51.412;6.724;2023-11-21T13:00:26;11.90;99.90
9837;DHT22;4957;51.412;6.724;2023-11-21T13:02:54;11.90;99.90
9837;DHT22;4957;51.412;6.724;2023-11-21T13:05:34;11.90;99.90
9837;DHT22;4957;51.412;6.724;2023-11-21T13:08:02;11.90;99.90
9837;DHT22;4957;51.412;6.724;2023-11-21T13:10:30;11.90;99.90
9837;DHT22;4957;51.412;6.724;2023-11-21T13:13:00;11.90;99.90
9837;DHT22;4957;51.412;6.724;2023-11-21T13:15:29;11.90;99.90
9837;DHT22;4957;51.412;6.724;2023-11-21T13:17:57;12.00;99.90
9837;DHT22;4957;51.412;6.724;2023-11-21T13:20:24;11.90;99.90
9837;DHT22;4957;51.412;6.724;2023-11-21T13:22:51;11.90;99.90
9837;DHT22;4957;51.412;6.724;2023-11-21T13:25:23;11.90;99.90
9837;DHT22;4957;51.412;6.724;2023-11-21T13:27:49;11.90;99.90
9837;DHT22;4957;51.412;6.724;2023-11-21T13:30:16;11.90;99.90
9837;DHT22;4957;51.412;6.724;2023-11-21T13:32:45;11.90;99.90
9837;DHT22;4957;51.412;6.724;2023-11-21T13:35:12;11.90;99.90
9837;DHT22;4957;51.412;6.724;2023-11-21T13:37:50;11.90;99.90
9837;DHT22;4957;51.412;6.724;2023-11-21T13:40:20;11.90;99.90
9837;DHT22;4957;51.412;6.724;2023-11-21T13:42:49;11.90;99.90
9837;DHT22;4957;51.412;6.724;2023-11-21T13:45:21;11.90;99.90
9837;DHT22;4957;51.412;6.724;2023-11-21T13:47:49;11.90;99.90
9837;DHT22;4957;51.412;6.724;2023-11-21T13:50:17;11.90;99.90
9837;DHT22;4957;51.412;6.724;2023-11-21T13:52:49;11.90;99.90
9837;DHT22;4957;51.412;6.724;2023-11-21T13:55:16;11.90;99.90
9837;DHT22;4957;51.412;6.724;2023-11-21T13:57:42;11.80;99.90
9837;DHT22;4957;51.412;6.724;2023-11-21T14:00:11;11.90;99.90
9837;DHT22;4957;51.412;6.724;2023-11-21T14:02:57;11.80;99.90
9837;DHT22;4957;51.412;6.724;2023-11-21T14:05:29;11.80;99.90
9837;DHT22;4957;51.412;6.724;2023-11-21T14:07:57;11.80;99.90
9837;DHT22;4957;51.412;6.724;2023-11-21T14:10:29;11.80;99.90
9837;DHT22;4957;51.412;6.724;2023-11-21T14:13:03;11.80;99.90
9837;DHT22;4957;51.412;6.724;2023-11-21T14:15:30;11.80;99.90
9837;DHT22;4957;51.412;6.724;2023-11-21T14:17:56;11.80;99.90
9837;DHT22;4957;51.412;6.724;2023-11-21T14:20:22;11.80;99.90
9837;DHT22;4957;51.412;6.724;2023-11-21T14:22:49;11.80;99.90
9837;DHT22;4957;51.412;6.724;2023-11-21T14:25:16;11.80;99.90
9837;DHT22;4957;51.412;6.724;2023-11-21T14:27:43;11.80;99.90
9837;DHT22;4957;51.412;6.724;2023-11-21T14:30:09;11.80;99.90
9837;DHT22;4957;51.412;6.724;2023-11-21T14:32:38;11.80;99.90
9837;DHT22;4957;51.412;6.724;2023-11-21T14:35:04;11.80;99.90
9837;DHT22;4957;51.412;6.724;2023-11-21T14:37:30;11.80;99.90
9837;DHT22;4957;51.412;6.724;2023-11-21T14:39:56;11.80;99.90
9837;DHT22;4957;51.412;6.724;2023-11-21T14:42:22;11.80;99.90
9837;DHT22;4957;51.412;6.724;2023-11-21T14:44:51;11.80;99.90
9837;DHT22;4957;51.412;6.724;2023-11-21T14:47:17;11.70;99.90
9837;DHT22;4957;51.412;6.724;2023-11-21T14:49:50;11.70;99.90
9837;DHT22;4957;51.412;6.724;2023-11-21T14:52:19;11.70;99.90
9837;DHT22;4957;51.412;6.724;2023-11-21T14:55:00;11.70;99.90
9837;DHT22;4957;51.412;6.724;2023-11-21T14:57:44;11.70;99.90
9837;DHT22;4957;51.412;6.724;2023-11-21T15:00:19;11.70;99.90
9837;DHT22;4957;51.412;6.724;2023-11-21T15:03:00;11.60;99.90
9837;DHT22;4957;51.412;6.724;2023-11-21T15:05:27;11.70;99.90
9837;DHT22;4957;51.412;6.724;2023-11-21T15:07:55;11.60;99.90
9837;DHT22;4957;51.412;6.724;2023-11-21T15:10:24;11.60;99.90
9837;DHT22;4957;51.412;6.724;2023-11-21T15:13:11;11.60;99.90
9837;DHT22;4957;51.412;6.724;2023-11-21T15:15:37;11.60;99.90
9837;DHT22;4957;51.412;6.724;2023-11-21T15:18:03;11.60;99.90
9837;DHT22;4957;51.412;6.724;2023-11-21T15:20:29;11.50;99.90
9837;DHT22;4957;51.412;6.724;2023-11-21T15:22:55;11.50;99.90
9837;DHT22;4957;51.412;6.724;2023-11-21T15:25:21;11.50;99.90
9837;DHT22;4957;51.412;6.724;2023-11-21T15:27:47;11.50;99.90
9837;DHT22;4957;51.412;6.724;2023-11-21T15:30:15;11.50;99.90
9837;DHT22;4957;51.412;6.724;2023-11-21T15:32:45;11.50;99.90
9837;DHT22;4957;51.412;6.724;2023-11-21T15:35:12;11.50;99.90
9837;DHT22;4957;51.412;6.724;2023-11-21T15:37:40;11.50;99.90
9837;DHT22;4957;51.412;6.724;2023-11-21T15:40:06;11.40;99.90
9837;DHT22;4957;51.412;6.724;2023-11-21T15:42:34;11.40;99.90
9837;DHT22;4957;51.412;6.724;2023-11-21T15:45:02;11.40;99.90
9837;DHT22;4957;51.412;6.724;2023-11-21T15:47:30;11.40;99.90
9837;DHT22;4957;51.412;6.724;2023-11-21T15:49:55;11.40;99.90
9837;DHT22;4957;51.412;6.724;2023-11-21T15:52:21;11.40;99.90
9837;DHT22;4957;51.412;6.724;2023-11-21T15:54:47;11.30;99.90
9837;DHT22;4957;51.412;6.724;2023-11-21T15:57:13;11.30;99.90
9837;DHT22;4957;51.412;6.724;2023-11-21T15:59:40;11.30;99.90
9837;DHT22;4957;51.412;6.724;2023-11-21T16:02:07;11.30;99.90
9837;DHT22;4957;51.412;6.724;2023-11-21T16:04:36;11.30;99.90
9837;DHT22;4957;51.412;6.724;2023-11-21T16:07:03;11.30;99.90
9837;DHT22;4957;51.412;6.724;2023-11-21T16:09:31;11.20;99.90
9837;DHT22;4957;51.412;6.724;2023-11-21T16:12:00;11.20;99.90
9837;DHT22;4957;51.412;6.724;2023-11-21T16:14:28;11.20;99.90
9837;DHT22;4957;51.412;6.724;2023-11-21T16:17:00;11.20;99.90
9837;DHT22;4957;51.412;6.724;2023-11-21T16:19:27;11.20;99.90
9837;DHT22;4957;51.412;6.724;2023-11-21T16:21:52;11.10;99.90
9837;DHT22;4957;51.412;6.724;2023-11-21T16:24:18;11.10;99.90
9837;DHT22;4957;51.412;6.724;2023-11-21T16:26:45;11.10;99.90
9837;DHT22;4957;51.412;6.724;2023-11-21T16:29:11;11.10;99.90
9837;DHT22;4957;51.412;6.724;2023-11-21T16:31:40;11.10;99.90
9837;DHT22;4957;51.412;6.724;2023-11-21T16:34:19;11.10;99.90